sensor_id;sensor_type;location;lat;lon;timestamp;pressure;altitude;pressure_sealevel;temperature;humidity
16120;BME280;12670;53.502;10.252;2023-03-19T00:01:53;100831.97;;;11.80;100.00
16120;BME280;12670;53.502;10.252;2023-03-19T00:04:56;100836.44;;;11.59;100.00
16120;BME280;12670;53.502;10.252;2023-03-19T00:07:59;100843.16;;;11.68;100.00
16120;BME280;12670;53.502;10.252;2023-03-19T00:11:05;100840.63;;;11.65;100.00
16120;BME280;12670;53.502;10.252;2023-03-19T00:14:10;100843.72;;;11.56;100.00
16120;BME280;12670;53.502;10.252;2023-03-19T00:17:12;100842.97;;;11.52;100.00
16120;BME280;12670;53.502;10.252;2023-03-19T00:20:15;100844.44;;;11.59;100.00
16120;BME280;12670;53.502;10.252;2023-03-19T00:23:18;100855.91;;;11.60;100.00
16120;BME280;12670;53.502;10.252;2023-03-19T00:26:21;100847.28;;;11.55;100.00
16120;BME280;12670;53.502;10.252;2023-03-19T00:29:25;100855.31;;;11.53;100.00
16120;BME280;12670;53.502;10.252;2023-03-19T00:32:27;100856.19;;;11.54;100.00
16120;BME280;12670;53.502;10.252;2023-03-19T00:35:30;100858.06;;;11.52;100.00
16120;BME280;12670;53.502;10.252;2023-03-19T00:38:33;100847.63;;;11.47;100.00
16120;BME280;12670;53.502;10.252;2023-03-19T00:41:36;100854.63;;;11.50;100.00
16120;BME280;12670;53.502;10.252;2023-03-19T00:44:40;100850.59;;;11.60;100.00
16120;BME280;12670;53.502;10.252;2023-03-19T00:47:43;100852.94;;;11.67;100.00
16120;BME280;12670;53.502;10.252;2023-03-19T00:50:46;100848.75;;;11.62;100.00
16120;BME280;12670;53.502;10.252;2023-03-19T00:53:49;100852.31;;;11.61;100.00
16120;BME280;12670;53.502;10.252;2023-03-19T00:56:52;100855.59;;;11.67;100.00
16120;BME280;12670;53.502;10.252;2023-03-19T00:59:55;100857.63;;;11.61;100.00
16120;BME280;12670;53.502;10.252;2023-03-19T01:02:58;100858.72;;;11.57;100.00
16120;BME280;12670;53.502;10.252;2023-03-19T01:06:01;100851.03;;;11.51;100.00
16120;BME280;12670;53.502;10.252;2023-03-19T01:09:05;100867.41;;;11.60;100.00
16120;BME280;12670;53.502;10.252;2023-03-19T01:12:08;100866.53;;;11.60;100.00
16120;BME280;12670;53.502;10.252;2023-03-19T01:15:12;100868.03;;;11.67;100.00
16120;BME280;12670;53.502;10.252;2023-03-19T01:18:15;100865.38;;;11.46;100.00
16120;BME280;12670;53.502;10.252;2023-03-19T01:21:18;100865.03;;;11.54;100.00
16120;BME280;12670;53.502;10.252;2023-03-19T01:24:22;100856.94;;;11.57;100.00
16120;BME280;12670;53.502;10.252;2023-03-19T01:27:25;100845.13;;;11.44;100.00
16120;BME280;12670;53.502;10.252;2023-03-19T01:30:29;100854.66;;;11.48;100.00
16120;BME280;12670;53.502;10.252;2023-03-19T01:33:32;100849.41;;;11.46;100.00
16120;BME280;12670;53.502;10.252;2023-03-19T01:36:34;100845.56;;;11.54;100.00
16120;BME280;12670;53.502;10.252;2023-03-19T01:39:37;100849.50;;;11.45;100.00
16120;BME280;12670;53.502;10.252;2023-03-19T01:42:55;100860.31;;;11.40;100.00
16120;BME280;12670;53.502;10.252;2023-03-19T01:46:02;100850.16;;;11.50;100.00
16120;BME280;12670;53.502;10.252;2023-03-19T01:49:09;100844.44;;;11.39;100.00
16120;BME280;12670;53.502;10.252;2023-03-19T01:52:14;100848.91;;;11.38;100.00
16120;BME280;12670;53.502;10.252;2023-03-19T01:55:17;100850.75;;;11.36;100.00
16120;BME280;12670;53.502;10.252;2023-03-19T01:58:20;100847.09;;;11.39;100.00
16120;BME280;12670;53.502;10.252;2023-03-19T02:01:29;100846.69;;;11.28;100.00
16120;BME280;12670;53.502;10.252;2023-03-19T02:04:37;100842.56;;;11.41;100.00
16120;BME280;12670;53.502;10.252;2023-03-19T02:07:41;100845.03;;;11.45;100.00
16120;BME280;12670;53.502;10.252;2023-03-19T02:10:46;100841.44;;;11.46;100.00
16120;BME280;12670;53.502;10.252;2023-03-19T02:13:49;100839.53;;;11.50;100.00
16120;BME280;12670;53.502;10.252;2023-03-19T02:16:53;100845.56;;;11.54;100.00
16120;BME280;12670;53.502;10.252;2023-03-19T02:20:00;100846.50;;;11.53;100.00
16120;BME280;12670;53.502;10.252;2023-03-19T02:23:11;100841.97;;;11.55;100.00
16120;BME280;12670;53.502;10.252;2023-03-19T02:26:17;100850.59;;;11.60;100.00
16120;BME280;12670;53.502;10.252;2023-03-19T02:29:21;100850.88;;;11.54;100.00
16120;BME280;12670;53.502;10.252;2023-03-19T02:32:23;100857.91;;;11.55;100.00
16120;BME280;12670;53.502;10.252;2023-03-19T02:35:31;100854.06;;;11.62;100.00
16120;BME280;12670;53.502;10.252;2023-03-19T02:38:35;100844.44;;;11.59;100.00
16120;BME280;12670;53.502;10.252;2023-03-19T02:41:41;100849.75;;;11.59;100.00
16120;BME280;12670;53.502;10.252;2023-03-19T02:44:44;100852.31;;;11.61;100.00
16120;BME280;12670;53.502;10.252;2023-03-19T02:47:48;100846.75;;;11.67;100.00
16120;BME280;12670;53.502;10.252;2023-03-19T02:50:51;100849.03;;;11.56;100.00
16120;BME280;12670;53.502;10.252;2023-03-19T02:53:53;100848.75;;;11.62;100.00
16120;BME280;12670;53.502;10.252;2023-03-19T02:56:57;100845.94;;;11.65;100.00
16120;BME280;12670;53.502;10.252;2023-03-19T03:00:00;100843.72;;;11.56;100.00
16120;BME280;12670;53.502;10.252;2023-03-19T03:03:04;100845.16;;;11.63;100.00
16120;BME280;12670;53.502;10.252;2023-03-19T03:06:07;100853.81;;;11.68;100.00
16120;BME280;12670;53.502;10.252;2023-03-19T03:09:11;100851.47;;;11.60;100.00
16120;BME280;12670;53.502;10.252;2023-03-19T03:12:15;100861.09;;;11.63;100.00
16120;BME280;12670;53.502;10.252;2023-03-19T03:15:18;100854.19;;;11.59;100.00
16120;BME280;12670;53.502;10.252;2023-03-19T03:18:21;100855.91;;;11.60;100.00
16120;BME280;12670;53.502;10.252;2023-03-19T03:21:24;100854.84;;;11.64;100.00
16120;BME280;12670;53.502;10.252;2023-03-19T03:24:27;100851.63;;;11.57;100.00
16120;BME280;12670;53.502;10.252;2023-03-19T03:27:31;100860.16;;;11.64;100.00
16120;BME280;12670;53.502;10.252;2023-03-19T03:30:34;100861.09;;;11.63;100.00
16120;BME280;12670;53.502;10.252;2023-03-19T03:33:37;100864.13;;;11.55;100.00
16120;BME280;12670;53.502;10.252;2023-03-19T03:36:39;100860.91;;;11.47;100.00
16120;BME280;12670;53.502;10.252;2023-03-19T03:39:42;100866.22;;;11.47;100.00
16120;BME280;12670;53.502;10.252;2023-03-19T03:42:46;100865.94;;;11.53;100.00
16120;BME280;12670;53.502;10.252;2023-03-19T03:45:49;100863.63;;;11.45;100.00
16120;BME280;12670;53.502;10.252;2023-03-19T03:48:51;100859.47;;;11.40;100.00
16120;BME280;12670;53.502;10.252;2023-03-19T03:51:54;100858.59;;;11.39;100.00
16120;BME280;12670;53.502;10.252;2023-03-19T03:54:57;100864.16;;;11.33;100.00
16120;BME280;12670;53.502;10.252;2023-03-19T03:58:01;100856.88;;;11.38;100.00
16120;BME280;12670;53.502;10.252;2023-03-19T04:01:04;100857.41;;;11.26;100.00
16120;BME280;12670;53.502;10.252;2023-03-19T04:04:07;100856.50;;;11.26;100.00
16120;BME280;12670;53.502;10.252;2023-03-19T04:07:10;100852.81;;;11.30;100.00
16120;BME280;12670;53.502;10.252;2023-03-19T04:10:13;100846.38;;;11.15;100.00
16120;BME280;12670;53.502;10.252;2023-03-19T04:13:17;100849.41;;;11.06;100.00
16120;BME280;12670;53.502;10.252;2023-03-19T04:16:20;100857.78;;;11.17;100.00
16120;BME280;12670;53.502;10.252;2023-03-19T04:19:23;100850.75;;;11.16;100.00
16120;BME280;12670;53.502;10.252;2023-03-19T04:22:26;100854.44;;;11.12;100.00
16120;BME280;12670;53.502;10.252;2023-03-19T04:25:29;100863.47;;;11.08;100.00
16120;BME280;12670;53.502;10.252;2023-03-19T04:28:33;100866.34;;;11.03;100.00
16120;BME280;12670;53.502;10.252;2023-03-19T04:31:36;100860.53;;;10.93;100.00
16120;BME280;12670;53.502;10.252;2023-03-19T04:34:39;100860.78;;;10.87;100.00
16120;BME280;12670;53.502;10.252;2023-03-19T04:37:42;100864.72;;;10.77;100.00
16120;BME280;12670;53.502;10.252;2023-03-19T04:40:48;100866.59;;;10.75;100.00
16120;BME280;12670;53.502;10.252;2023-03-19T04:43:53;100863.81;;;10.78;100.00
16120;BME280;12670;53.502;10.252;2023-03-19T04:46:56;100864.72;;;10.77;100.00
16120;BME280;12670;53.502;10.252;2023-03-19T04:49:58;100861.97;;;10.80;100.00
16120;BME280;12670;53.502;10.252;2023-03-19T04:53:01;100865.34;;;10.84;100.00
16120;BME280;12670;53.502;10.252;2023-03-19T04:56:05;100864.63;;;10.80;100.00
16120;BME280;12670;53.502;10.252;2023-03-19T04:59:09;100872.75;;;10.76;100.00
16120;BME280;12670;53.502;10.252;2023-03-19T05:02:12;100871.56;;;10.61;100.00
16120;BME280;12670;53.502;10.252;2023-03-19T05:05:14;100866.47;;;10.56;100.00
16120;BME280;12670;53.502;10.252;2023-03-19T05:08:17;100865.91;;;10.70;100.00
16120;BME280;12670;53.502;10.252;2023-03-19T05:11:20;100868.91;;;10.61;100.00
16120;BME280;12670;53.502;10.252;2023-03-19T05:14:24;100866.41;;;10.58;100.00
16120;BME280;12670;53.502;10.252;2023-03-19T05:17:26;100875.84;;;10.65;100.00
16120;BME280;12670;53.502;10.252;2023-03-19T05:20:29;100872.25;;;10.66;100.00
16120;BME280;12670;53.502;10.252;2023-03-19T05:23:32;100881.66;;;10.75;100.00
16120;BME280;12670;53.502;10.252;2023-03-19T05:26:34;100876.63;;;10.67;100.00
16120;BME280;12670;53.502;10.252;2023-03-19T05:29:39;100873.75;;;10.73;100.00
16120;BME280;12670;53.502;10.252;2023-03-19T05:32:42;100879.06;;;10.73;100.00
16120;BME280;12670;53.502;10.252;2023-03-19T05:35:47;100863.81;;;10.78;100.00
16120;BME280;12670;53.502;10.252;2023-03-19T05:38:49;100873.00;;;10.70;100.00
16120;BME280;12670;53.502;10.252;2023-03-19T05:41:52;100873.25;;;10.85;100.00
16120;BME280;12670;53.502;10.252;2023-03-19T05:44:56;100874.84;;;10.89;100.00
16120;BME280;12670;53.502;10.252;2023-03-19T05:47:59;100874.16;;;10.84;100.00
16120;BME280;12670;53.502;10.252;2023-03-19T05:51:02;100885.72;;;10.83;100.00
16120;BME280;12670;53.502;10.252;2023-03-19T05:54:05;100878.75;;;10.81;100.00
16120;BME280;12670;53.502;10.252;2023-03-19T05:57:08;100876.97;;;10.81;100.00
16120;BME280;12670;53.502;10.252;2023-03-19T06:00:13;100877.81;;;10.82;100.00
16120;BME280;12670;53.502;10.252;2023-03-19T06:03:16;100880.16;;;10.89;100.00
16120;BME280;12670;53.502;10.252;2023-03-19T06:06:19;100880.16;;;10.89;100.00
16120;BME280;12670;53.502;10.252;2023-03-19T06:09:21;100881.88;;;10.90;100.00
16120;BME280;12670;53.502;10.252;2023-03-19T06:12:24;100884.78;;;10.84;100.00
16120;BME280;12670;53.502;10.252;2023-03-19T06:15:28;100878.84;;;11.00;100.00
16120;BME280;12670;53.502;10.252;2023-03-19T06:18:31;100889.66;;;11.17;100.00
16120;BME280;12670;53.502;10.252;2023-03-19T06:21:34;100880.47;;;11.24;100.00
16120;BME280;12670;53.502;10.252;2023-03-19T06:24:37;100883.56;;;11.35;100.00
16120;BME280;12670;53.502;10.252;2023-03-19T06:27:39;100879.38;;;11.30;100.00
16120;BME280;12670;53.502;10.252;2023-03-19T06:30:43;100880.63;;;11.41;100.00
16120;BME280;12670;53.502;10.252;2023-03-19T06:33:46;100889.00;;;11.53;100.00
16120;BME280;12670;53.502;10.252;2023-03-19T06:36:49;100892.25;;;11.59;100.00
16120;BME280;12670;53.502;10.252;2023-03-19T06:39:54;100883.56;;;11.56;100.00
16120;BME280;12670;53.502;10.252;2023-03-19T06:42:56;100879.16;;;11.55;100.00
16120;BME280;12670;53.502;10.252;2023-03-19T06:46:00;100899.56;;;11.95;100.00
16120;BME280;12670;53.502;10.252;2023-03-19T06:49:03;100902.44;;;11.90;100.00
16120;BME280;12670;53.502;10.252;2023-03-19T06:52:06;100904.81;;;11.76;100.00
16120;BME280;12670;53.502;10.252;2023-03-19T06:55:09;100910.00;;;11.79;100.00
16120;BME280;12670;53.502;10.252;2023-03-19T06:58:12;100916.31;;;11.77;100.00
16120;BME280;12670;53.502;10.252;2023-03-19T07:01:16;100919.28;;;12.10;100.00
16120;BME280;12670;53.502;10.252;2023-03-19T07:04:19;100919.53;;;11.85;100.00
16120;BME280;12670;53.502;10.252;2023-03-19T07:07:22;100920.63;;;12.20;100.00
16120;BME280;12670;53.502;10.252;2023-03-19T07:10:24;100924.44;;;12.33;100.00
16120;BME280;12670;53.502;10.252;2023-03-19T07:13:27;100935.72;;;12.38;100.00
16120;BME280;12670;53.502;10.252;2023-03-19T07:16:31;100930.63;;;12.34;100.00
16120;BME280;12670;53.502;10.252;2023-03-19T07:19:34;100929.19;;;12.45;100.00
16120;BME280;12670;53.502;10.252;2023-03-19T07:22:36;100933.28;;;12.52;100.00
16120;BME280;12670;53.502;10.252;2023-03-19T07:25:39;100933.94;;;12.58;100.00
16120;BME280;12670;53.502;10.252;2023-03-19T07:28:42;100939.91;;;12.63;100.00
16120;BME280;12670;53.502;10.252;2023-03-19T07:31:46;100938.09;;;12.44;100.00
16120;BME280;12670;53.502;10.252;2023-03-19T07:34:49;100936.00;;;12.70;100.00
16120;BME280;12670;53.502;10.252;2023-03-19T07:37:51;100937.88;;;12.87;100.00
16120;BME280;12670;53.502;10.252;2023-03-19T07:40:54;100936.16;;;12.86;100.00
16120;BME280;12670;53.502;10.252;2023-03-19T07:44:03;100934.22;;;13.06;100.00
16120;BME280;12670;53.502;10.252;2023-03-19T07:47:08;100934.47;;;13.21;100.00
16120;BME280;12670;53.502;10.252;2023-03-19T07:50:26;100940.91;;;13.34;100.00
16120;BME280;12670;53.502;10.252;2023-03-19T07:53:29;100939.97;;;13.16;100.00
16120;BME280;12670;53.502;10.252;2023-03-19T07:56:31;100948.75;;;13.18;100.00
16120;BME280;12670;53.502;10.252;2023-03-19T07:59:34;100946.69;;;13.42;100.00
16120;BME280;12670;53.502;10.252;2023-03-19T08:02:38;100947.78;;;13.02;100.00
16120;BME280;12670;53.502;10.252;2023-03-19T08:05:43;100943.22;;;13.23;100.00
16120;BME280;12670;53.502;10.252;2023-03-19T08:08:45;100952.19;;;13.39;100.00
16120;BME280;12670;53.502;10.252;2023-03-19T08:11:48;100961.28;;;13.52;100.00
16120;BME280;12670;53.502;10.252;2023-03-19T08:14:50;100947.81;;;13.55;100.00
16120;BME280;12670;53.502;10.252;2023-03-19T08:17:58;100950.59;;;13.35;100.00
16120;BME280;12670;53.502;10.252;2023-03-19T08:21:00;100951.34;;;13.56;100.00
16120;BME280;12670;53.502;10.252;2023-03-19T08:24:03;100953.22;;;13.71;100.00
16120;BME280;12670;53.502;10.252;2023-03-19T08:27:06;100951.81;;;13.81;100.00
16120;BME280;12670;53.502;10.252;2023-03-19T08:30:10;100956.13;;;14.01;99.10
16120;BME280;12670;53.502;10.252;2023-03-19T08:33:15;100954.38;;;14.00;98.99
16120;BME280;12670;53.502;10.252;2023-03-19T08:36:18;100945.97;;;14.08;100.00
16120;BME280;12670;53.502;10.252;2023-03-19T08:39:20;100952.81;;;13.96;100.00
16120;BME280;12670;53.502;10.252;2023-03-19T08:42:23;100953.16;;;13.55;99.16
16120;BME280;12670;53.502;10.252;2023-03-19T08:45:26;100957.22;;;13.80;99.92
16120;BME280;12670;53.502;10.252;2023-03-19T08:48:30;100963.88;;;13.71;99.63
16120;BME280;12670;53.502;10.252;2023-03-19T08:51:32;100967.72;;;13.83;100.00
16120;BME280;12670;53.502;10.252;2023-03-19T08:54:35;100968.59;;;13.49;99.62
16120;BME280;12670;53.502;10.252;2023-03-19T08:57:38;100971.56;;;13.60;100.00
16120;BME280;12670;53.502;10.252;2023-03-19T09:00:41;100972.38;;;13.79;100.00
16120;BME280;12670;53.502;10.252;2023-03-19T09:03:45;100974.09;;;13.80;100.00
16120;BME280;12670;53.502;10.252;2023-03-19T09:06:48;100976.47;;;14.20;100.00
16120;BME280;12670;53.502;10.252;2023-03-19T09:09:51;100968.59;;;14.34;97.61
16120;BME280;12670;53.502;10.252;2023-03-19T09:12:54;100976.09;;;14.60;95.44
16120;BME280;12670;53.502;10.252;2023-03-19T09:15:57;100973.09;;;14.98;97.01
16120;BME280;12670;53.502;10.252;2023-03-19T09:19:01;100978.50;;;14.81;92.75
16120;BME280;12670;53.502;10.252;2023-03-19T09:22:03;100983.69;;;15.31;92.77
16120;BME280;12670;53.502;10.252;2023-03-19T09:25:07;100985.69;;;15.73;87.67
16120;BME280;12670;53.502;10.252;2023-03-19T09:28:09;100978.84;;;15.84;84.65
16120;BME280;12670;53.502;10.252;2023-03-19T09:31:12;100982.38;;;15.98;86.62
16120;BME280;12670;53.502;10.252;2023-03-19T09:34:16;100983.47;;;16.39;81.42
16120;BME280;12670;53.502;10.252;2023-03-19T09:37:19;100987.38;;;16.05;80.27
16120;BME280;12670;53.502;10.252;2023-03-19T09:40:25;100993.69;;;16.04;81.31
16120;BME280;12670;53.502;10.252;2023-03-19T09:43:43;100982.31;;;16.29;84.10
16120;BME280;12670;53.502;10.252;2023-03-19T09:46:53;100983.66;;;16.21;80.52
16120;BME280;12670;53.502;10.252;2023-03-19T09:50:03;100992.28;;;16.41;83.01
16120;BME280;12670;53.502;10.252;2023-03-19T09:53:13;100990.47;;;16.84;80.69
16120;BME280;12670;53.502;10.252;2023-03-19T09:56:19;100995.88;;;17.65;78.70
16120;BME280;12670;53.502;10.252;2023-03-19T09:59:23;100991.38;;;18.18;77.48
16120;BME280;12670;53.502;10.252;2023-03-19T10:02:40;100996.09;;;18.65;70.36
16120;BME280;12670;53.502;10.252;2023-03-19T10:05:50;100987.06;;;18.28;70.62
16120;BME280;12670;53.502;10.252;2023-03-19T10:09:03;100987.28;;;18.76;70.42
16120;BME280;12670;53.502;10.252;2023-03-19T10:12:24;100994.78;;;19.21;61.63
16120;BME280;12670;53.502;10.252;2023-03-19T10:15:29;100988.63;;;18.95;64.13
16120;BME280;12670;53.502;10.252;2023-03-19T10:18:34;100992.34;;;19.41;63.16
16120;BME280;12670;53.502;10.252;2023-03-19T10:21:42;100994.19;;;19.52;63.86
16120;BME280;12670;53.502;10.252;2023-03-19T10:24:48;100996.00;;;19.88;61.70
16120;BME280;12670;53.502;10.252;2023-03-19T10:27:55;100989.94;;;20.20;59.86
16120;BME280;12670;53.502;10.252;2023-03-19T10:31:10;100994.16;;;20.46;57.40
16120;BME280;12670;53.502;10.252;2023-03-19T10:34:24;100989.16;;;20.64;56.06
16120;BME280;12670;53.502;10.252;2023-03-19T10:37:33;100985.47;;;20.54;57.47
16120;BME280;12670;53.502;10.252;2023-03-19T10:40:43;100994.16;;;20.80;55.36
16120;BME280;12670;53.502;10.252;2023-03-19T10:43:52;100989.22;;;21.83;53.17
16120;BME280;12670;53.502;10.252;2023-03-19T10:47:08;100981.38;;;22.12;53.15
16120;BME280;12670;53.502;10.252;2023-03-19T10:50:14;100979.38;;;23.15;51.79
16120;BME280;12670;53.502;10.252;2023-03-19T10:53:28;100988.94;;;23.20;48.68
16120;BME280;12670;53.502;10.252;2023-03-19T10:56:32;100988.69;;;23.23;49.98
16120;BME280;12670;53.502;10.252;2023-03-19T10:59:36;100985.28;;;23.40;47.74
16120;BME280;12670;53.502;10.252;2023-03-19T11:02:45;100993.00;;;23.93;48.16
16120;BME280;12670;53.502;10.252;2023-03-19T11:06:03;100987.19;;;23.09;45.82
16120;BME280;12670;53.502;10.252;2023-03-19T11:09:16;100977.66;;;22.65;46.63
16120;BME280;12670;53.502;10.252;2023-03-19T11:12:22;100979.13;;;23.38;48.19
16120;BME280;12670;53.502;10.252;2023-03-19T11:15:32;100977.53;;;22.45;47.45
16120;BME280;12670;53.502;10.252;2023-03-19T11:18:38;100978.63;;;22.94;46.22
16120;BME280;12670;53.502;10.252;2023-03-19T11:21:40;100979.84;;;23.50;43.75
16120;BME280;12670;53.502;10.252;2023-03-19T11:24:51;100987.25;;;23.38;43.66
16120;BME280;12670;53.502;10.252;2023-03-19T11:27:58;100983.25;;;24.19;42.70
16120;BME280;12670;53.502;10.252;2023-03-19T11:31:08;100987.69;;;22.53;44.76
16120;BME280;12670;53.502;10.252;2023-03-19T11:34:24;100978.41;;;22.04;44.24
16120;BME280;12670;53.502;10.252;2023-03-19T11:37:44;100981.34;;;22.64;46.31
16120;BME280;12670;53.502;10.252;2023-03-19T11:40:58;100978.81;;;23.22;44.14
16120;BME280;12670;53.502;10.252;2023-03-19T11:44:05;100971.00;;;23.38;42.88
16120;BME280;12670;53.502;10.252;2023-03-19T11:47:12;100970.56;;;23.33;44.30
16120;BME280;12670;53.502;10.252;2023-03-19T11:50:32;100965.13;;;23.13;42.37
16120;BME280;12670;53.502;10.252;2023-03-19T11:53:42;100960.53;;;24.20;41.01
16120;BME280;12670;53.502;10.252;2023-03-19T11:56:57;100958.50;;;23.76;41.87
16120;BME280;12670;53.502;10.252;2023-03-19T12:00:14;100967.28;;;22.70;44.84
16120;BME280;12670;53.502;10.252;2023-03-19T12:03:51;100965.50;;;21.87;47.11
16120;BME280;12670;53.502;10.252;2023-03-19T12:07:02;100958.63;;;20.41;47.83
16120;BME280;12670;53.502;10.252;2023-03-19T12:10:25;100960.09;;;20.57;51.88
16120;BME280;12670;53.502;10.252;2023-03-19T12:13:37;100964.72;;;20.43;52.26
16120;BME280;12670;53.502;10.252;2023-03-19T12:16:52;100969.00;;;20.12;51.26
16120;BME280;12670;53.502;10.252;2023-03-19T12:23:39;100965.31;;;18.95;53.24
16120;BME280;12670;53.502;10.252;2023-03-19T12:26:53;100961.78;;;18.56;61.15
16120;BME280;12670;53.502;10.252;2023-03-19T12:30:02;100970.41;;;17.98;72.59
16120;BME280;12670;53.502;10.252;2023-03-19T12:33:19;100984.34;;;16.96;86.72
16120;BME280;12670;53.502;10.252;2023-03-19T12:36:28;101006.59;;;15.67;100.00
16120;BME280;12670;53.502;10.252;2023-03-19T12:39:36;100987.47;;;15.43;100.00
16120;BME280;12670;53.502;10.252;2023-03-19T12:42:40;100985.59;;;15.59;100.00
16120;BME280;12670;53.502;10.252;2023-03-19T12:45:46;100987.75;;;15.68;100.00
16120;BME280;12670;53.502;10.252;2023-03-19T12:48:56;100983.38;;;15.67;100.00
16120;BME280;12670;53.502;10.252;2023-03-19T12:52:04;100984.97;;;16.00;100.00
16120;BME280;12670;53.502;10.252;2023-03-19T12:55:15;100974.56;;;16.10;100.00
16120;BME280;12670;53.502;10.252;2023-03-19T12:58:24;100975.03;;;16.02;100.00
16120;BME280;12670;53.502;10.252;2023-03-19T13:01:36;100976.41;;;16.38;100.00
16120;BME280;12670;53.502;10.252;2023-03-19T13:04:46;100977.56;;;16.48;100.00
16120;BME280;12670;53.502;10.252;2023-03-19T13:07:56;100980.22;;;16.62;100.00
16120;BME280;12670;53.502;10.252;2023-03-19T13:11:01;100968.75;;;16.60;100.00
16120;BME280;12670;53.502;10.252;2023-03-19T13:14:10;100968.19;;;16.55;100.00
16120;BME280;12670;53.502;10.252;2023-03-19T13:17:20;100968.00;;;16.44;100.00
16120;BME280;12670;53.502;10.252;2023-03-19T13:20:34;100965.09;;;16.47;100.00
16120;BME280;12670;53.502;10.252;2023-03-19T13:23:42;100967.00;;;16.59;100.00
16120;BME280;12670;53.502;10.252;2023-03-19T13:26:46;100962.66;;;16.72;100.00
16120;BME280;12670;53.502;10.252;2023-03-19T13:29:59;100968.09;;;16.85;100.00
16120;BME280;12670;53.502;10.252;2023-03-19T13:33:04;100966.44;;;16.83;100.00
16120;BME280;12670;53.502;10.252;2023-03-19T13:36:11;100961.47;;;16.76;100.00
16120;BME280;12670;53.502;10.252;2023-03-19T13:39:18;100960.53;;;16.77;100.00
16120;BME280;12670;53.502;10.252;2023-03-19T13:42:34;100953.16;;;16.67;100.00
16120;BME280;12670;53.502;10.252;2023-03-19T13:45:38;100954.13;;;16.66;100.00
16120;BME280;12670;53.502;10.252;2023-03-19T13:48:50;100956.59;;;16.69;100.00
16120;BME280;12670;53.502;10.252;2023-03-19T13:51:55;100953.44;;;16.76;100.00
16120;BME280;12670;53.502;10.252;2023-03-19T13:55:29;100948.94;;;16.91;100.00
16120;BME280;12670;53.502;10.252;2023-03-19T13:58:44;100967.56;;;16.93;100.00
16120;BME280;12670;53.502;10.252;2023-03-19T14:01:52;100962.03;;;16.82;100.00
16120;BME280;12670;53.502;10.252;2023-03-19T14:04:59;100958.72;;;16.49;100.00
16120;BME280;12670;53.502;10.252;2023-03-19T14:08:14;100957.88;;;16.49;100.00
16120;BME280;12670;53.502;10.252;2023-03-19T14:11:22;100957.09;;;16.33;100.00
16120;BME280;12670;53.502;10.252;2023-03-19T14:14:25;100961.88;;;16.13;100.00
16120;BME280;12670;53.502;10.252;2023-03-19T14:17:31;100959.00;;;16.02;100.00
16120;BME280;12670;53.502;10.252;2023-03-19T14:20:43;100975.25;;;15.69;100.00
16120;BME280;12670;53.502;10.252;2023-03-19T14:23:53;100981.72;;;15.65;100.00
16120;BME280;12670;53.502;10.252;2023-03-19T14:27:00;100979.34;;;15.29;100.00
16120;BME280;12670;53.502;10.252;2023-03-19T14:30:08;100990.41;;;15.23;100.00
16120;BME280;12670;53.502;10.252;2023-03-19T14:33:17;100988.31;;;15.28;100.00
16120;BME280;12670;53.502;10.252;2023-03-19T14:36:22;100995.03;;;15.35;100.00
16120;BME280;12670;53.502;10.252;2023-03-19T14:39:27;100997.09;;;15.30;100.00
16120;BME280;12670;53.502;10.252;2023-03-19T14:42:38;100996.56;;;15.55;100.00
16120;BME280;12670;53.502;10.252;2023-03-19T14:45:45;100989.84;;;15.63;100.00
16120;BME280;12670;53.502;10.252;2023-03-19T14:49:09;101001.06;;;15.54;100.00
16120;BME280;12670;53.502;10.252;2023-03-19T14:52:21;100990.88;;;15.45;100.00
16120;BME280;12670;53.502;10.252;2023-03-19T14:55:32;100987.13;;;15.17;100.00
16120;BME280;12670;53.502;10.252;2023-03-19T14:58:35;100993.25;;;15.19;100.00
16120;BME280;12670;53.502;10.252;2023-03-19T15:01:39;100996.69;;;15.37;100.00
16120;BME280;12670;53.502;10.252;2023-03-19T15:04:43;101000.88;;;15.41;100.00
16120;BME280;12670;53.502;10.252;2023-03-19T15:07:49;101003.31;;;15.46;100.00
16120;BME280;12670;53.502;10.252;2023-03-19T15:11:01;101001.19;;;15.37;100.00
16120;BME280;12670;53.502;10.252;2023-03-19T15:14:19;100995.72;;;15.38;100.00
16120;BME280;12670;53.502;10.252;2023-03-19T15:17:27;101000.53;;;15.63;100.00
16120;BME280;12670;53.502;10.252;2023-03-19T15:20:35;100996.75;;;15.67;100.00
16120;BME280;12670;53.502;10.252;2023-03-19T15:23:40;101000.38;;;15.35;100.00
16120;BME280;12670;53.502;10.252;2023-03-19T15:26:46;100995.66;;;15.24;100.00
16120;BME280;12670;53.502;10.252;2023-03-19T15:29:49;101002.84;;;15.08;100.00
16120;BME280;12670;53.502;10.252;2023-03-19T15:32:52;100997.38;;;14.93;100.00
16120;BME280;12670;53.502;10.252;2023-03-19T15:36:17;100998.84;;;14.68;100.00
16120;BME280;12670;53.502;10.252;2023-03-19T15:39:23;100998.50;;;14.74;100.00
16120;BME280;12670;53.502;10.252;2023-03-19T15:42:28;101000.66;;;14.83;100.00
16120;BME280;12670;53.502;10.252;2023-03-19T15:45:32;100994.03;;;14.74;100.00
16120;BME280;12670;53.502;10.252;2023-03-19T15:48:41;100994.72;;;14.78;100.00
16120;BME280;12670;53.502;10.252;2023-03-19T15:51:46;100999.91;;;14.97;100.00
16120;BME280;12670;53.502;10.252;2023-03-19T15:54:53;100997.66;;;15.05;100.00